Terminal Aerodrome Forecast
Issued by NWS Topeka, KS

Home | Current Version | Previous Version | Graphics & Text | Print | Product List | Glossary On
Versions: 1 2 3 4 5 6 7 8 9 10 11 12
912
FTUS43 KTOP 061720
TAFTOP
TAF
KTOP 061720Z 0618/0718 24008KT P6SM FEW250
     FM071300 29006KT P6SM BKN100
     FM071700 30015G22KT P6SM SCT100=

USA.gov is the U.S. government's official web portal to all federal, state and local government web resources and services.